Skip Navigation Links
NOAA logo - Click to go to the NOAA homepage
NOAA's National Weather Service
Alaska Aviation Weather Unit
  NWS logo - Click to go to the NWS homepage
Left Navbar Graphic     03 AKDT = 11 GMT

   
NOAA is celebrating 200 years of science, service, and stewardship. Visit the NOAA 200th celebration Web site to learn more.
USA.gov is the U.S. Government's official Web portal to all Federal, state and local government Web resources and services.
Facebook
NWS on Facebook

Important Change Regarding the AAWU Web Presence

 

Over the last several months, the AAWU has been working to navigate its webpages to a nationally supported server. Security, as well as other needs, have necessitated the change.  We have been given an extension for the site changeover while we diligently work at addressing feedback received. As of July 14, 2017, aawu.arh.noaa.gov will be discontinued. The new AAWU web address is weather.gov/aawu. It is now live and will run in-parallel with the old site until it is discontinued on July 14, 2017. Please continue to send any feedback or questions regarding the new webpages to nws.ar.aawu.webauthors@noaa.gov.  Thank you for your patience during this time of transition.
AAWU Home :: Display TAF Add Bookmark
SPECI PAMK 230542Z AUTO 25008KT 10SM OVC031 09/06 A2980 RMK AO2 $=

METAR PAMK 230556Z AUTO 24007KT 10SM BKN022 OVC031 09/06 A2980 RMK
 AO2 SLP094 T00940061 10122 20094 58007 $=

SPECI PAMK 230619Z AUTO 23008KT 10SM FEW022 SCT028 OVC034 09/06 A2980
     RMK AO2 $=

PAMK 230627Z AUTO 23006KT 10SM BKN026 OVC034 09/06 A2980 RMK AO2
     $=

SPECI PAMK 230636Z AUTO 23008KT 10SM FEW026 OVC036 09/06 A2980 RMK AO2
     $=

METAR PAMK 230656Z AUTO 22008KT 10SM OVC036 08/06 A2980 RMK AO2 SLP094
     T00830061 $=

SPECI PAMK 230730Z AUTO 22008KT 10SM BKN026 OVC032 08/06 A2979 RMK AO2
     $=

METAR PAMK 230756Z AUTO 22006KT 10SM BKN026 OVC032 08/06 A2979 RMK AO2
     SLP091 T00830061 $=

SPECI PAMK 230821Z AUTO 24006KT 10SM SCT028 OVC036 09/06 A2978 RMK AO2
     $=

METAR PAMK 230856Z AUTO 26006KT 10SM OVC034 09/05 A2978 RMK AO2
 SLP087 T00890050 401220083 58007 $=

METAR PAMK 230956Z AUTO 25006KT 10SM OVC030 08/04 A2977 RMK AO2 SLP085
     T00830044 $=

METAR PAMK 231056Z AUTO 24006KT 10SM OVC030 08/04 A2976 RMK AO2 SLP083
     T00830039 $=


NOAA's National Weather Service
Alaska Aviation Weather Unit
6930 Sand Lake Road
Anchorage, AK 99502-1845
Disclaimer
Credits
Glossary
Privacy Policy
About Us
Career Opportunities
Contact AAWU Internet Services Site last modified: April, 17th 2012